sensor_id;sensor_type;location;lat;lon;timestamp;pressure;altitude;pressure_sealevel;temperature;humidity
12969;BME280;6549;53.128;8.182;2023-07-13T00:02:37;101029.34;;;13.93;100.00
12969;BME280;6549;53.128;8.182;2023-07-13T00:05:38;101030.53;;;13.89;100.00
12969;BME280;6549;53.128;8.182;2023-07-13T00:08:38;101026.19;;;13.81;100.00
12969;BME280;6549;53.128;8.182;2023-07-13T00:11:39;101024.28;;;13.74;100.00
12969;BME280;6549;53.128;8.182;2023-07-13T00:14:40;101034.16;;;13.72;100.00
12969;BME280;6549;53.128;8.182;2023-07-13T00:17:40;101032.16;;;13.72;100.00
12969;BME280;6549;53.128;8.182;2023-07-13T00:20:41;101033.78;;;13.66;100.00
12969;BME280;6549;53.128;8.182;2023-07-13T00:23:42;101031.78;;;13.63;100.00
12969;BME280;6549;53.128;8.182;2023-07-13T00:26:42;101026.25;;;13.63;100.00
12969;BME280;6549;53.128;8.182;2023-07-13T00:29:45;101021.94;;;13.55;100.00
12969;BME280;6549;53.128;8.182;2023-07-13T00:32:46;101031.84;;;13.49;100.00
12969;BME280;6549;53.128;8.182;2023-07-13T00:35:46;101028.31;;;13.48;100.00
12969;BME280;6549;53.128;8.182;2023-07-13T00:38:47;101026.72;;;13.47;100.00
12969;BME280;6549;53.128;8.182;2023-07-13T00:41:47;101027.53;;;13.44;100.00
12969;BME280;6549;53.128;8.182;2023-07-13T00:45:02;101026.31;;;13.42;100.00
12969;BME280;6549;53.128;8.182;2023-07-13T00:48:02;101027.50;;;13.41;100.00
12969;BME280;6549;53.128;8.182;2023-07-13T00:51:03;101031.06;;;13.38;100.00
12969;BME280;6549;53.128;8.182;2023-07-13T00:54:05;101029.88;;;13.42;100.00
12969;BME280;6549;53.128;8.182;2023-07-13T00:57:09;101033.03;;;13.41;100.00
12969;BME280;6549;53.128;8.182;2023-07-13T01:00:11;101044.88;;;13.38;100.00
12969;BME280;6549;53.128;8.182;2023-07-13T01:03:12;101044.88;;;13.38;100.00
12969;BME280;6549;53.128;8.182;2023-07-13T01:06:12;101046.47;;;13.35;100.00
12969;BME280;6549;53.128;8.182;2023-07-13T01:09:14;101049.22;;;13.39;100.00
12969;BME280;6549;53.128;8.182;2023-07-13T01:12:14;101036.22;;;13.39;100.00
12969;BME280;6549;53.128;8.182;2023-07-13T01:15:34;101043.28;;;13.44;100.00
12969;BME280;6549;53.128;8.182;2023-07-13T01:18:35;101037.38;;;13.42;100.00
12969;BME280;6549;53.128;8.182;2023-07-13T01:21:36;101048.41;;;13.42;100.00
12969;BME280;6549;53.128;8.182;2023-07-13T01:24:39;101048.03;;;13.40;100.00
12969;BME280;6549;53.128;8.182;2023-07-13T01:27:40;101040.16;;;13.38;100.00
12969;BME280;6549;53.128;8.182;2023-07-13T01:30:41;101037.38;;;13.38;100.00
12969;BME280;6549;53.128;8.182;2023-07-13T01:33:45;101035.41;;;13.39;100.00
12969;BME280;6549;53.128;8.182;2023-07-13T01:36:45;101036.22;;;13.36;100.00
12969;BME280;6549;53.128;8.182;2023-07-13T01:39:46;101035.44;;;13.35;100.00
12969;BME280;6549;53.128;8.182;2023-07-13T01:42:47;101031.47;;;13.33;100.00
12969;BME280;6549;53.128;8.182;2023-07-13T01:45:47;101033.06;;;13.34;100.00
12969;BME280;6549;53.128;8.182;2023-07-13T01:48:47;101024.41;;;13.32;100.00
12969;BME280;6549;53.128;8.182;2023-07-13T01:51:48;101037.41;;;13.35;100.00
12969;BME280;6549;53.128;8.182;2023-07-13T01:54:48;101028.31;;;13.34;100.00
12969;BME280;6549;53.128;8.182;2023-07-13T01:57:49;101031.47;;;13.33;100.00
12969;BME280;6549;53.128;8.182;2023-07-13T02:00:51;101024.78;;;13.34;100.00
12969;BME280;6549;53.128;8.182;2023-07-13T02:03:51;101032.28;;;13.30;100.00
12969;BME280;6549;53.128;8.182;2023-07-13T02:06:51;101015.72;;;13.26;100.00
12969;BME280;6549;53.128;8.182;2023-07-13T02:09:52;101020.47;;;13.26;100.00
12969;BME280;6549;53.128;8.182;2023-07-13T02:12:52;101025.97;;;13.26;100.00
12969;BME280;6549;53.128;8.182;2023-07-13T02:15:52;101024.41;;;13.25;100.00
12969;BME280;6549;53.128;8.182;2023-07-13T02:18:53;101028.34;;;13.27;100.00
12969;BME280;6549;53.128;8.182;2023-07-13T02:21:53;101021.22;;;13.30;100.00
12969;BME280;6549;53.128;8.182;2023-07-13T02:24:54;101041.34;;;13.34;100.00
12969;BME280;6549;53.128;8.182;2023-07-13T02:27:54;101043.28;;;13.37;100.00
12969;BME280;6549;53.128;8.182;2023-07-13T02:30:54;101045.28;;;13.40;100.00
12969;BME280;6549;53.128;8.182;2023-07-13T02:33:54;101036.19;;;13.43;100.00
12969;BME280;6549;53.128;8.182;2023-07-13T02:36:55;101036.59;;;13.45;100.00
12969;BME280;6549;53.128;8.182;2023-07-13T02:39:55;101041.69;;;13.50;100.00
12969;BME280;6549;53.128;8.182;2023-07-13T02:42:55;101042.09;;;13.52;100.00
12969;BME280;6549;53.128;8.182;2023-07-13T02:45:56;101040.09;;;13.56;100.00
12969;BME280;6549;53.128;8.182;2023-07-13T02:48:56;101036.94;;;13.58;100.00
12969;BME280;6549;53.128;8.182;2023-07-13T02:51:57;101040.09;;;13.60;100.00
12969;BME280;6549;53.128;8.182;2023-07-13T02:54:57;101035.75;;;13.62;100.00
12969;BME280;6549;53.128;8.182;2023-07-13T02:57:57;101037.72;;;13.62;100.00
12969;BME280;6549;53.128;8.182;2023-07-13T03:00:58;101040.88;;;13.64;100.00
12969;BME280;6549;53.128;8.182;2023-07-13T03:03:58;101045.19;;;13.65;100.00
12969;BME280;6549;53.128;8.182;2023-07-13T03:06:58;101039.28;;;13.66;100.00
12969;BME280;6549;53.128;8.182;2023-07-13T03:09:59;101040.44;;;13.69;100.00
12969;BME280;6549;53.128;8.182;2023-07-13T03:12:59;101037.69;;;13.76;100.00
12969;BME280;6549;53.128;8.182;2023-07-13T03:16:00;101042.41;;;13.79;100.00
12969;BME280;6549;53.128;8.182;2023-07-13T03:19:00;101038.03;;;13.81;100.00
12969;BME280;6549;53.128;8.182;2023-07-13T03:22:00;101044.75;;;13.84;100.00
12969;BME280;6549;53.128;8.182;2023-07-13T03:25:01;101043.94;;;13.87;100.00
12969;BME280;6549;53.128;8.182;2023-07-13T03:28:01;101043.94;;;13.87;100.00
12969;BME280;6549;53.128;8.182;2023-07-13T03:31:08;101043.94;;;13.87;100.00
12969;BME280;6549;53.128;8.182;2023-07-13T03:34:09;101052.22;;;13.90;100.00
12969;BME280;6549;53.128;8.182;2023-07-13T03:37:10;101051.03;;;13.91;100.00
12969;BME280;6549;53.128;8.182;2023-07-13T03:40:10;101057.34;;;13.92;100.00
12969;BME280;6549;53.128;8.182;2023-07-13T03:43:11;101057.31;;;13.95;100.00
12969;BME280;6549;53.128;8.182;2023-07-13T03:46:12;101060.50;;;13.98;100.00
12969;BME280;6549;53.128;8.182;2023-07-13T03:49:12;101063.25;;;13.98;100.00
12969;BME280;6549;53.128;8.182;2023-07-13T03:52:12;101063.63;;;14.00;100.00
12969;BME280;6549;53.128;8.182;2023-07-13T03:55:13;101064.03;;;14.02;100.00
12969;BME280;6549;53.128;8.182;2023-07-13T03:58:26;101060.44;;;14.05;100.00
12969;BME280;6549;53.128;8.182;2023-07-13T04:01:27;101069.94;;;14.07;100.00
12969;BME280;6549;53.128;8.182;2023-07-13T04:04:27;101069.13;;;14.07;100.00
12969;BME280;6549;53.128;8.182;2023-07-13T04:07:27;101073.84;;;14.10;100.00
12969;BME280;6549;53.128;8.182;2023-07-13T04:10:28;101062.78;;;14.13;100.00
12969;BME280;6549;53.128;8.182;2023-07-13T04:13:28;101069.88;;;14.18;100.00
12969;BME280;6549;53.128;8.182;2023-07-13T04:16:29;101065.91;;;14.19;100.00
12969;BME280;6549;53.128;8.182;2023-07-13T04:19:29;101073.00;;;14.23;100.00
12969;BME280;6549;53.128;8.182;2023-07-13T04:22:29;101067.44;;;14.27;100.00
12969;BME280;6549;53.128;8.182;2023-07-13T04:25:30;101069.78;;;14.32;100.00
12969;BME280;6549;53.128;8.182;2023-07-13T04:28:30;101079.66;;;14.40;100.00
12969;BME280;6549;53.128;8.182;2023-07-13T04:31:31;101075.31;;;14.43;100.00
12969;BME280;6549;53.128;8.182;2023-07-13T04:34:31;101077.63;;;14.48;100.00
12969;BME280;6549;53.128;8.182;2023-07-13T04:37:32;101073.66;;;14.52;100.00
12969;BME280;6549;53.128;8.182;2023-07-13T04:40:32;101076.78;;;14.58;100.00
12969;BME280;6549;53.128;8.182;2023-07-13T04:43:32;101079.16;;;14.59;100.00
12969;BME280;6549;53.128;8.182;2023-07-13T04:46:33;101083.47;;;14.64;100.00
12969;BME280;6549;53.128;8.182;2023-07-13T04:49:33;101081.06;;;14.66;100.00
12969;BME280;6549;53.128;8.182;2023-07-13T04:52:34;101083.44;;;14.67;100.00
12969;BME280;6549;53.128;8.182;2023-07-13T04:55:34;101073.97;;;14.68;100.00
12969;BME280;6549;53.128;8.182;2023-07-13T04:58:34;101087.38;;;14.73;100.00
12969;BME280;6549;53.128;8.182;2023-07-13T05:01:35;101081.38;;;14.82;100.00
12969;BME280;6549;53.128;8.182;2023-07-13T05:04:35;101086.03;;;14.92;100.00
12969;BME280;6549;53.128;8.182;2023-07-13T05:07:35;101091.84;;;15.05;100.00
12969;BME280;6549;53.128;8.182;2023-07-13T05:10:36;101097.72;;;15.14;100.00
12969;BME280;6549;53.128;8.182;2023-07-13T05:13:36;101095.34;;;15.16;100.00
12969;BME280;6549;53.128;8.182;2023-07-13T05:16:37;101097.72;;;15.14;100.00
12969;BME280;6549;53.128;8.182;2023-07-13T05:19:37;101098.88;;;15.16;100.00
12969;BME280;6549;53.128;8.182;2023-07-13T05:22:37;101102.88;;;15.12;100.00
12969;BME280;6549;53.128;8.182;2023-07-13T05:25:38;101110.31;;;15.22;100.00
12969;BME280;6549;53.128;8.182;2023-07-13T05:28:39;101106.72;;;15.25;100.00
12969;BME280;6549;53.128;8.182;2023-07-13T05:31:39;101105.16;;;15.24;100.00
12969;BME280;6549;53.128;8.182;2023-07-13T05:34:40;101113.81;;;15.29;100.00
12969;BME280;6549;53.128;8.182;2023-07-13T05:37:40;101115.72;;;15.36;100.00
12969;BME280;6549;53.128;8.182;2023-07-13T05:40:43;101112.50;;;15.41;100.00
12969;BME280;6549;53.128;8.182;2023-07-13T05:43:43;101119.97;;;15.48;100.00
12969;BME280;6549;53.128;8.182;2023-07-13T05:46:44;101117.53;;;15.57;100.00
12969;BME280;6549;53.128;8.182;2023-07-13T05:49:44;101118.66;;;15.66;100.00
12969;BME280;6549;53.128;8.182;2023-07-13T05:52:44;101121.69;;;15.76;100.00
12969;BME280;6549;53.128;8.182;2023-07-13T05:55:46;101122.38;;;15.87;100.00
12969;BME280;6549;53.128;8.182;2023-07-13T05:58:50;101123.06;;;15.94;100.00
12969;BME280;6549;53.128;8.182;2023-07-13T06:01:51;101129.41;;;15.95;100.00
12969;BME280;6549;53.128;8.182;2023-07-13T06:04:52;101115.84;;;16.04;100.00
12969;BME280;6549;53.128;8.182;2023-07-13T06:07:52;101124.78;;;16.18;100.00
12969;BME280;6549;53.128;8.182;2023-07-13T06:10:53;101126.59;;;16.32;100.00
12969;BME280;6549;53.128;8.182;2023-07-13T06:13:53;101132.09;;;16.36;100.00
12969;BME280;6549;53.128;8.182;2023-07-13T06:16:54;101124.50;;;16.40;100.00
12969;BME280;6549;53.128;8.182;2023-07-13T06:19:54;101144.56;;;16.51;100.00
12969;BME280;6549;53.128;8.182;2023-07-13T06:22:55;101138.31;;;16.77;100.00
12969;BME280;6549;53.128;8.182;2023-07-13T06:25:56;101140.38;;;17.23;100.00
12969;BME280;6549;53.128;8.182;2023-07-13T06:28:56;101147.75;;;17.80;100.00
12969;BME280;6549;53.128;8.182;2023-07-13T06:31:57;101142.41;;;17.89;100.00
12969;BME280;6549;53.128;8.182;2023-07-13T06:34:57;101142.78;;;18.11;100.00
12969;BME280;6549;53.128;8.182;2023-07-13T06:37:57;101148.78;;;18.09;100.00
12969;BME280;6549;53.128;8.182;2023-07-13T06:40:58;101150.75;;;18.28;100.00
12969;BME280;6549;53.128;8.182;2023-07-13T06:43:58;101150.84;;;18.45;100.00
12969;BME280;6549;53.128;8.182;2023-07-13T06:46:59;101157.88;;;18.69;100.00
12969;BME280;6549;53.128;8.182;2023-07-13T06:50:00;101156.78;;;18.82;100.00
12969;BME280;6549;53.128;8.182;2023-07-13T06:53:00;101157.19;;;19.01;100.00
12969;BME280;6549;53.128;8.182;2023-07-13T06:56:01;101146.91;;;19.14;100.00
12969;BME280;6549;53.128;8.182;2023-07-13T06:59:01;101154.47;;;19.29;100.00
12969;BME280;6549;53.128;8.182;2023-07-13T07:02:01;101156.59;;;19.42;100.00
12969;BME280;6549;53.128;8.182;2023-07-13T07:05:02;101161.84;;;19.56;100.00
12969;BME280;6549;53.128;8.182;2023-07-13T07:08:02;101164.16;;;19.57;100.00
12969;BME280;6549;53.128;8.182;2023-07-13T07:11:02;101174.78;;;19.62;100.00
12969;BME280;6549;53.128;8.182;2023-07-13T07:14:03;101167.75;;;19.58;100.00
12969;BME280;6549;53.128;8.182;2023-07-13T07:17:03;101171.59;;;19.64;100.00
12969;BME280;6549;53.128;8.182;2023-07-13T07:20:04;101162.28;;;19.83;100.00
12969;BME280;6549;53.128;8.182;2023-07-13T07:23:05;101167.66;;;20.06;100.00
12969;BME280;6549;53.128;8.182;2023-07-13T07:26:06;101167.66;;;20.06;100.00
12969;BME280;6549;53.128;8.182;2023-07-13T07:29:08;101177.59;;;20.07;100.00
12969;BME280;6549;53.128;8.182;2023-07-13T07:32:09;101172.31;;;20.26;100.00
12969;BME280;6549;53.128;8.182;2023-07-13T07:35:09;101174.25;;;20.41;100.00
12969;BME280;6549;53.128;8.182;2023-07-13T07:38:09;101166.09;;;20.34;100.00
12969;BME280;6549;53.128;8.182;2023-07-13T07:41:10;101164.50;;;20.62;100.00
12969;BME280;6549;53.128;8.182;2023-07-13T07:44:10;101166.94;;;20.60;100.00
12969;BME280;6549;53.128;8.182;2023-07-13T07:47:11;101171.09;;;20.93;100.00
12969;BME280;6549;53.128;8.182;2023-07-13T07:50:11;101175.25;;;21.27;100.00
12969;BME280;6549;53.128;8.182;2023-07-13T07:53:11;101162.38;;;21.29;100.00
12969;BME280;6549;53.128;8.182;2023-07-13T07:56:13;101159.03;;;21.22;100.00
12969;BME280;6549;53.128;8.182;2023-07-13T07:59:13;101181.47;;;21.56;100.00
12969;BME280;6549;53.128;8.182;2023-07-13T08:02:13;101172.69;;;21.79;100.00
12969;BME280;6549;53.128;8.182;2023-07-13T08:05:14;101168.09;;;21.85;100.00
12969;BME280;6549;53.128;8.182;2023-07-13T08:08:14;101173.19;;;22.00;100.00
12969;BME280;6549;53.128;8.182;2023-07-13T08:11:16;101175.91;;;21.78;100.00
12969;BME280;6549;53.128;8.182;2023-07-13T08:14:16;101176.47;;;21.98;100.00
12969;BME280;6549;53.128;8.182;2023-07-13T08:17:17;101177.47;;;22.26;100.00
12969;BME280;6549;53.128;8.182;2023-07-13T08:20:17;101177.97;;;22.33;100.00
12969;BME280;6549;53.128;8.182;2023-07-13T08:23:18;101168.47;;;22.62;100.00
12969;BME280;6549;53.128;8.182;2023-07-13T08:26:18;101175.00;;;22.59;100.00
12969;BME280;6549;53.128;8.182;2023-07-13T08:29:18;101180.25;;;22.48;100.00
12969;BME280;6549;53.128;8.182;2023-07-13T08:32:20;101171.16;;;22.65;100.00
12969;BME280;6549;53.128;8.182;2023-07-13T08:35:21;101176.72;;;22.78;100.00
12969;BME280;6549;53.128;8.182;2023-07-13T08:38:22;101179.38;;;22.60;100.00
12969;BME280;6549;53.128;8.182;2023-07-13T08:41:23;101178.72;;;22.77;100.00
12969;BME280;6549;53.128;8.182;2023-07-13T08:47:54;101186.34;;;22.77;100.00
12969;BME280;6549;53.128;8.182;2023-07-13T08:51:00;101176.31;;;22.98;100.00
12969;BME280;6549;53.128;8.182;2023-07-13T08:57:23;101187.34;;;23.23;100.00
12969;BME280;6549;53.128;8.182;2023-07-13T09:00:36;101179.00;;;23.50;100.00
12969;BME280;6549;53.128;8.182;2023-07-13T09:04:02;101192.31;;;23.19;100.00
12969;BME280;6549;53.128;8.182;2023-07-13T09:10:45;101184.81;;;23.16;100.00
12969;BME280;6549;53.128;8.182;2023-07-13T09:17:24;101177.16;;;23.07;100.00
12969;BME280;6549;53.128;8.182;2023-07-13T09:20:30;101179.31;;;22.51;100.00
12969;BME280;6549;53.128;8.182;2023-07-13T09:23:32;101188.91;;;22.19;100.00
12969;BME280;6549;53.128;8.182;2023-07-13T09:26:33;101180.56;;;22.71;100.00
12969;BME280;6549;53.128;8.182;2023-07-13T09:29:34;101179.94;;;23.07;100.00
12969;BME280;6549;53.128;8.182;2023-07-13T09:32:38;101182.00;;;23.16;100.00
12969;BME280;6549;53.128;8.182;2023-07-13T09:35:39;101179.66;;;22.74;100.00
12969;BME280;6549;53.128;8.182;2023-07-13T09:38:39;101179.34;;;22.29;100.00
12969;BME280;6549;53.128;8.182;2023-07-13T09:45:00;101184.09;;;22.41;100.00
12969;BME280;6549;53.128;8.182;2023-07-13T09:48:11;101187.22;;;22.96;100.00
12969;BME280;6549;53.128;8.182;2023-07-13T09:51:13;101194.53;;;23.42;100.00
12969;BME280;6549;53.128;8.182;2023-07-13T09:54:23;101192.00;;;23.26;100.00
12969;BME280;6549;53.128;8.182;2023-07-13T09:57:26;101187.41;;;23.01;100.00
12969;BME280;6549;53.128;8.182;2023-07-13T10:00:29;101185.91;;;22.35;97.30
12969;BME280;6549;53.128;8.182;2023-07-13T10:03:34;101195.59;;;21.87;100.00
12969;BME280;6549;53.128;8.182;2023-07-13T10:06:39;101193.06;;;21.80;100.00
12969;BME280;6549;53.128;8.182;2023-07-13T10:09:40;101195.75;;;21.71;100.00
12969;BME280;6549;53.128;8.182;2023-07-13T10:12:41;101207.69;;;21.84;100.00
12969;BME280;6549;53.128;8.182;2023-07-13T10:15:41;101214.28;;;22.24;100.00
12969;BME280;6549;53.128;8.182;2023-07-13T10:18:49;101209.06;;;22.57;100.00
12969;BME280;6549;53.128;8.182;2023-07-13T10:21:55;101204.25;;;22.79;100.00
12969;BME280;6549;53.128;8.182;2023-07-13T10:24:56;101219.59;;;23.27;99.45
12969;BME280;6549;53.128;8.182;2023-07-13T10:28:06;101218.47;;;23.65;100.00
12969;BME280;6549;53.128;8.182;2023-07-13T10:31:13;101207.88;;;23.60;100.00
12969;BME280;6549;53.128;8.182;2023-07-13T10:34:14;101222.03;;;23.16;100.00
12969;BME280;6549;53.128;8.182;2023-07-13T10:37:29;101205.72;;;22.93;100.00
12969;BME280;6549;53.128;8.182;2023-07-13T10:40:37;101217.53;;;22.66;100.00
12969;BME280;6549;53.128;8.182;2023-07-13T10:43:43;101219.09;;;22.24;100.00
12969;BME280;6549;53.128;8.182;2023-07-13T10:46:45;101225.34;;;22.06;100.00
12969;BME280;6549;53.128;8.182;2023-07-13T10:49:46;101245.75;;;21.69;100.00
12969;BME280;6549;53.128;8.182;2023-07-13T10:52:53;101267.50;;;21.39;100.00
12969;BME280;6549;53.128;8.182;2023-07-13T10:59:09;101285.88;;;20.12;100.00
12969;BME280;6549;53.128;8.182;2023-07-13T11:02:25;101309.78;;;19.09;100.00
12969;BME280;6549;53.128;8.182;2023-07-13T11:11:37;101299.28;;;17.38;100.00
12969;BME280;6549;53.128;8.182;2023-07-13T11:17:54;101306.84;;;16.73;100.00
12969;BME280;6549;53.128;8.182;2023-07-13T11:21:26;101296.72;;;16.59;100.00
12969;BME280;6549;53.128;8.182;2023-07-13T11:24:29;101292.47;;;16.44;100.00
12969;BME280;6549;53.128;8.182;2023-07-13T11:27:46;101292.66;;;16.64;100.00
12969;BME280;6549;53.128;8.182;2023-07-13T11:31:13;101294.63;;;16.67;100.00
12969;BME280;6549;53.128;8.182;2023-07-13T11:34:15;101305.44;;;16.54;100.00
12969;BME280;6549;53.128;8.182;2023-07-13T11:37:18;101304.22;;;16.55;100.00
12969;BME280;6549;53.128;8.182;2023-07-13T11:40:22;101295.94;;;16.52;100.00
12969;BME280;6549;53.128;8.182;2023-07-13T11:43:27;101299.84;;;16.61;100.00
12969;BME280;6549;53.128;8.182;2023-07-13T11:46:27;101311.63;;;16.73;100.00
12969;BME280;6549;53.128;8.182;2023-07-13T11:49:31;101315.94;;;16.74;100.00
12969;BME280;6549;53.128;8.182;2023-07-13T11:52:35;101325.69;;;16.89;100.00
12969;BME280;6549;53.128;8.182;2023-07-13T11:55:37;101304.31;;;17.46;100.00
12969;BME280;6549;53.128;8.182;2023-07-13T11:58:38;101306.31;;;18.42;100.00
12969;BME280;6549;53.128;8.182;2023-07-13T12:01:45;101313.22;;;18.97;100.00
12969;BME280;6549;53.128;8.182;2023-07-13T12:04:46;101317.50;;;19.57;100.00
12969;BME280;6549;53.128;8.182;2023-07-13T12:07:47;101307.78;;;19.82;100.00
12969;BME280;6549;53.128;8.182;2023-07-13T12:10:48;101314.97;;;20.11;100.00
12969;BME280;6549;53.128;8.182;2023-07-13T12:13:56;101321.50;;;20.37;100.00
12969;BME280;6549;53.128;8.182;2023-07-13T12:16:56;101316.88;;;20.47;100.00
12969;BME280;6549;53.128;8.182;2023-07-13T12:19:56;101319.28;;;20.61;100.00
12969;BME280;6549;53.128;8.182;2023-07-13T12:22:57;101319.66;;;20.76;100.00
12969;BME280;6549;53.128;8.182;2023-07-13T12:25:59;101322.44;;;20.76;100.00
12969;BME280;6549;53.128;8.182;2023-07-13T12:29:05;101328.00;;;20.63;100.00
12969;BME280;6549;53.128;8.182;2023-07-13T12:32:08;101334.56;;;20.56;100.00
12969;BME280;6549;53.128;8.182;2023-07-13T12:35:15;101340.75;;;20.93;100.00
12969;BME280;6549;53.128;8.182;2023-07-13T12:38:16;101349.88;;;20.93;100.00
12969;BME280;6549;53.128;8.182;2023-07-13T12:41:17;101352.00;;;21.18;100.00
12969;BME280;6549;53.128;8.182;2023-07-13T12:44:27;101356.72;;;21.46;100.00
12969;BME280;6549;53.128;8.182;2023-07-13T12:47:28;101350.03;;;21.69;100.00
12969;BME280;6549;53.128;8.182;2023-07-13T12:50:34;101351.19;;;21.59;100.00
12969;BME280;6549;53.128;8.182;2023-07-13T12:53:41;101340.09;;;21.68;100.00
12969;BME280;6549;53.128;8.182;2023-07-13T12:56:41;101332.47;;;21.56;100.00
12969;BME280;6549;53.128;8.182;2023-07-13T12:59:42;101342.56;;;21.54;100.00
12969;BME280;6549;53.128;8.182;2023-07-13T13:02:42;101333.59;;;21.59;100.00
12969;BME280;6549;53.128;8.182;2023-07-13T13:05:42;101337.88;;;21.50;100.00
12969;BME280;6549;53.128;8.182;2023-07-13T13:08:43;101334.22;;;21.25;100.00
12969;BME280;6549;53.128;8.182;2023-07-13T13:11:44;101328.88;;;21.18;100.00
12969;BME280;6549;53.128;8.182;2023-07-13T13:14:44;101331.72;;;21.01;100.00
12969;BME280;6549;53.128;8.182;2023-07-13T13:17:45;101331.16;;;20.65;100.00
12969;BME280;6549;53.128;8.182;2023-07-13T13:20:46;101325.72;;;20.58;100.00
12969;BME280;6549;53.128;8.182;2023-07-13T13:23:47;101325.72;;;20.58;100.00
12969;BME280;6549;53.128;8.182;2023-07-13T13:26:48;101323.09;;;20.67;100.00
12969;BME280;6549;53.128;8.182;2023-07-13T13:29:50;101325.50;;;20.52;100.00
12969;BME280;6549;53.128;8.182;2023-07-13T13:32:52;101315.66;;;20.48;100.00
12969;BME280;6549;53.128;8.182;2023-07-13T13:35:52;101327.56;;;20.65;100.00
12969;BME280;6549;53.128;8.182;2023-07-13T13:38:52;101333.91;;;21.35;100.00
12969;BME280;6549;53.128;8.182;2023-07-13T13:41:53;101327.22;;;21.96;100.00
12969;BME280;6549;53.128;8.182;2023-07-13T13:44:54;101334.06;;;22.08;100.00
12969;BME280;6549;53.128;8.182;2023-07-13T13:47:56;101339.00;;;22.38;100.00
12969;BME280;6549;53.128;8.182;2023-07-13T13:50:58;101333.97;;;22.67;100.00
12969;BME280;6549;53.128;8.182;2023-07-13T13:53:59;101333.50;;;22.47;100.00
12969;BME280;6549;53.128;8.182;2023-07-13T13:56:59;101321.66;;;22.65;100.00
12969;BME280;6549;53.128;8.182;2023-07-13T13:59:59;101321.91;;;22.58;100.00
12969;BME280;6549;53.128;8.182;2023-07-13T14:03:00;101330.81;;;22.78;100.00
12969;BME280;6549;53.128;8.182;2023-07-13T14:06:00;101323.78;;;22.73;100.00
12969;BME280;6549;53.128;8.182;2023-07-13T14:09:01;101309.91;;;22.92;100.00
12969;BME280;6549;53.128;8.182;2023-07-13T14:12:02;101312.34;;;22.68;100.00
12969;BME280;6549;53.128;8.182;2023-07-13T14:15:03;101324.94;;;21.91;100.00
12969;BME280;6549;53.128;8.182;2023-07-13T14:18:04;101359.56;;;21.59;100.00
12969;BME280;6549;53.128;8.182;2023-07-13T14:21:14;101397.13;;;20.59;100.00
12969;BME280;6549;53.128;8.182;2023-07-13T14:24:15;101357.44;;;19.15;100.00
12969;BME280;6549;53.128;8.182;2023-07-13T14:27:15;101347.22;;;18.22;100.00
12969;BME280;6549;53.128;8.182;2023-07-13T14:30:21;101350.59;;;18.10;100.00
12969;BME280;6549;53.128;8.182;2023-07-13T14:33:22;101357.66;;;17.91;100.00
12969;BME280;6549;53.128;8.182;2023-07-13T14:36:31;101368.41;;;17.63;100.00
12969;BME280;6549;53.128;8.182;2023-07-13T14:39:32;101351.00;;;17.59;100.00
12969;BME280;6549;53.128;8.182;2023-07-13T14:42:32;101352.63;;;17.52;100.00
12969;BME280;6549;53.128;8.182;2023-07-13T14:45:32;101361.00;;;17.49;100.00
12969;BME280;6549;53.128;8.182;2023-07-13T14:48:33;101364.19;;;17.51;100.00
12969;BME280;6549;53.128;8.182;2023-07-13T14:51:34;101369.59;;;17.62;100.00
12969;BME280;6549;53.128;8.182;2023-07-13T14:54:34;101368.53;;;17.52;100.00
12969;BME280;6549;53.128;8.182;2023-07-13T14:57:35;101372.03;;;17.60;100.00
12969;BME280;6549;53.128;8.182;2023-07-13T15:00:35;101366.06;;;17.61;100.00
12969;BME280;6549;53.128;8.182;2023-07-13T15:03:40;101351.91;;;17.48;100.00
12969;BME280;6549;53.128;8.182;2023-07-13T15:06:56;101355.78;;;17.55;100.00
12969;BME280;6549;53.128;8.182;2023-07-13T15:09:57;101369.28;;;17.56;100.00
12969;BME280;6549;53.128;8.182;2023-07-13T15:13:16;101370.44;;;17.59;100.00
12969;BME280;6549;53.128;8.182;2023-07-13T15:16:20;101384.59;;;17.37;100.00
12969;BME280;6549;53.128;8.182;2023-07-13T15:19:22;101385.72;;;17.43;100.00
12969;BME280;6549;53.128;8.182;2023-07-13T15:22:23;101367.81;;;17.44;100.00
12969;BME280;6549;53.128;8.182;2023-07-13T15:25:26;101366.69;;;17.42;100.00
12969;BME280;6549;53.128;8.182;2023-07-13T15:28:27;101366.81;;;17.31;100.00
12969;BME280;6549;53.128;8.182;2023-07-13T15:31:27;101371.16;;;17.32;100.00
12969;BME280;6549;53.128;8.182;2023-07-13T15:34:28;101377.94;;;17.31;100.00
12969;BME280;6549;53.128;8.182;2023-07-13T15:37:29;101370.16;;;17.19;100.00
12969;BME280;6549;53.128;8.182;2023-07-13T15:40:29;101367.75;;;17.21;100.00
12969;BME280;6549;53.128;8.182;2023-07-13T15:43:32;101362.28;;;17.44;100.00
12969;BME280;6549;53.128;8.182;2023-07-13T15:46:32;101359.41;;;17.21;100.00
12969;BME280;6549;53.128;8.182;2023-07-13T15:49:33;101363.06;;;17.15;100.00
12969;BME280;6549;53.128;8.182;2023-07-13T15:52:33;101364.13;;;17.24;100.00
12969;BME280;6549;53.128;8.182;2023-07-13T15:55:37;101368.03;;;17.30;100.00
12969;BME280;6549;53.128;8.182;2023-07-13T15:58:38;101361.91;;;17.42;100.00
12969;BME280;6549;53.128;8.182;2023-07-13T16:01:38;101374.00;;;17.59;100.00
12969;BME280;6549;53.128;8.182;2023-07-13T16:04:41;101372.25;;;17.72;100.00
12969;BME280;6549;53.128;8.182;2023-07-13T16:07:46;101368.06;;;17.87;100.00
12969;BME280;6549;53.128;8.182;2023-07-13T16:10:46;101360.00;;;17.93;100.00
12969;BME280;6549;53.128;8.182;2023-07-13T16:13:48;101361.00;;;17.79;100.00
12969;BME280;6549;53.128;8.182;2023-07-13T16:16:53;101366.19;;;18.04;100.00
12969;BME280;6549;53.128;8.182;2023-07-13T16:19:55;101371.56;;;18.15;100.00
12969;BME280;6549;53.128;8.182;2023-07-13T16:22:56;101374.06;;;18.56;100.00